Terminal Aerodrome Forecast
Issued by NWS

Home | Current Version | Previous Version | Text Only | Print | Product List | Glossary On
Versions: 1 2 3 4 5 6 7 8 9 10 11 12 13
554
FTUS45 KTFX 221752
TAFHLN
TAF
KHLN 221752Z 2218/2318 26011KT P6SM VCSH SCT025 BKN040
     FM222100 28006KT P6SM BKN035
     FM230800 27012KT P6SM VCSH SCT040 BKN060
     FM231200 29006KT P6SM SCT015 BKN030 PROB30 2313/2317 2SM -SHSN
      BKN010=

USA.gov is the U.S. government's official web portal to all federal, state and local government web resources and services.